X  Fermer Données météorologiques d'aviation de Metar     EHKD De Kooy Airport
Température
57°F Température
55°F Point de rosée
94% Humidité



Vent
5 MPH
8 KM/H
2 M/S
4 KTS



10°
N
Conditions actuelles

Clair Clair
Pression 1010.84 (hPa) - 29.85 (inHg)
Visibilité 6 (mile) - 9.7 (km)
Aéroport
Code de l'aéroport EHKD

Emplacement: De Kooy Airport
Distance: 34 (mi)

Metar:
EHKD 190155Z AUTO 01004KT 340V040 9999 NCD 14/13 Q1011 BLU

Temps: 19-05-2024 03:55 CEST